Barreirinha, Brazil
Current Conditions -  °F | °C
As of 12:00 PM on Sunday 23 Nov 2014 (Local Time) from SBIH Reporting Station
Scattered Clouds Scattered Clouds  
Wind Chill: 84°   Ceiling: Unl
Heat Index: 92°   Visibility: 6mi
Dew Point: 75°   Wind: 5mph
Humidity: 74%   Direction: 150°SSE
Pressure: 29.85"   Gusts: NA
Location:  2.79°S, 57.07°W
Report Text: SBIH 231600Z 15004KT 9999 SCT017 FEW022TCU 29/24 Q1011
Loading
Personal Weather Stations






























Interactive Weather Map New forecast layout! Learn more

10-Day Weather Forecast

Advertisements
Track Severe Weather on mobile